createdAt,value
2023-02-12T00:00:51.913Z,81.79
2023-02-12T00:03:18.745Z,81.95
2023-02-12T00:05:45.292Z,81.44
2023-02-12T00:08:12.181Z,81.44
2023-02-12T00:10:44.791Z,81.51
2023-02-12T00:13:12.064Z,81.83
2023-02-12T00:15:40.450Z,81.29
2023-02-12T00:18:06.985Z,81.28
2023-02-12T00:20:33.571Z,81.37
2023-02-12T00:23:00.114Z,81.39
2023-02-12T00:25:26.657Z,81.17
2023-02-12T00:27:53.150Z,82.02
2023-02-12T00:30:19.727Z,80.95
2023-02-12T00:32:46.474Z,81.78
2023-02-12T00:35:13.153Z,81.29
2023-02-12T00:37:39.769Z,81.73
2023-02-12T00:40:06.915Z,80.89
2023-02-12T00:42:33.505Z,80.57
2023-02-12T00:44:59.995Z,80.55
2023-02-12T00:47:26.521Z,80.79
2023-02-12T00:49:53.042Z,80.59
2023-02-12T00:52:19.577Z,81.02
2023-02-12T00:54:46.081Z,81.50
2023-02-12T00:57:13.947Z,80.68
2023-02-12T00:59:42.244Z,80.78
2023-02-12T01:02:08.742Z,81.39
2023-02-12T01:04:35.461Z,81.38
2023-02-12T01:07:02.042Z,81.30
2023-02-12T01:09:28.575Z,80.38
2023-02-12T01:11:55.108Z,80.47
2023-02-12T01:14:21.740Z,80.81
2023-02-12T01:16:48.224Z,80.67
2023-02-12T01:19:14.854Z,80.42
2023-02-12T01:21:42.453Z,80.81
2023-02-12T01:24:09.611Z,79.96
2023-02-12T01:26:36.459Z,80.25
2023-02-12T01:29:06.519Z,79.64
2023-02-12T01:31:37.580Z,79.91
2023-02-12T01:34:05.275Z,79.83
2023-02-12T01:36:33.377Z,79.76
2023-02-12T01:39:00.046Z,79.73
2023-02-12T01:41:29.176Z,80.01
2023-02-12T01:44:20.967Z,79.90
2023-02-12T01:46:56.048Z,80.49
2023-02-12T01:49:26.825Z,80.43
2023-02-12T01:51:56.456Z,80.43
2023-02-12T01:54:25.768Z,80.54
2023-02-12T01:56:52.604Z,80.50
2023-02-12T01:59:19.985Z,80.15
2023-02-12T02:01:46.646Z,80.23
2023-02-12T02:04:17.076Z,80.05
2023-02-12T02:06:58.041Z,80.39
2023-02-12T02:09:25.421Z,80.11
2023-02-12T02:12:13.248Z,79.59
2023-02-12T02:14:41.007Z,79.76
2023-02-12T02:17:59.674Z,80.27
2023-02-12T02:20:45.057Z,80.15
2023-02-12T02:23:39.210Z,80.63
2023-02-12T02:26:33.011Z,80.29
2023-02-12T02:29:21.294Z,80.45
2023-02-12T02:32:17.078Z,80.41
2023-02-12T02:35:04.009Z,80.99
2023-02-12T02:37:36.371Z,80.51
2023-02-12T02:40:13.421Z,80.75
2023-02-12T02:42:52.230Z,80.37
2023-02-12T02:45:23.516Z,80.60
2023-02-12T02:47:55.571Z,80.19
2023-02-12T02:50:24.362Z,81.24
2023-02-12T02:53:02.951Z,80.22
2023-02-12T02:55:35.506Z,80.88
2023-02-12T02:58:10.290Z,80.60
2023-02-12T03:01:05.770Z,80.84
2023-02-12T03:03:36.066Z,80.37
2023-02-12T03:06:07.697Z,80.94
2023-02-12T03:08:43.724Z,80.45
2023-02-12T03:11:14.913Z,80.38
2023-02-12T03:13:47.354Z,80.90
2023-02-12T03:16:28.989Z,80.78
2023-02-12T03:19:02.369Z,80.77
2023-02-12T03:21:33.704Z,80.93
2023-02-12T03:24:15.247Z,80.83
2023-02-12T03:26:55.771Z,80.73
2023-02-12T03:29:22.266Z,80.78
2023-02-12T03:31:58.797Z,81.00
2023-02-12T03:34:53.922Z,80.35
2023-02-12T03:37:31.064Z,80.40
2023-02-12T03:40:04.074Z,80.25
2023-02-12T03:42:47.469Z,80.83
2023-02-12T03:45:34.295Z,81.02
2023-02-12T03:48:09.433Z,80.14
2023-02-12T03:50:41.972Z,80.59
2023-02-12T03:53:08.567Z,80.44
2023-02-12T03:55:39.464Z,80.99
2023-02-12T03:58:09.236Z,81.06
2023-02-12T04:00:37.912Z,81.12
2023-02-12T04:03:05.184Z,80.60
2023-02-12T04:05:31.731Z,80.70
2023-02-12T04:07:59.147Z,80.70
2023-02-12T04:10:33.112Z,80.47
2023-02-12T04:13:12.332Z,80.41
2023-02-12T04:15:41.718Z,80.57
2023-02-12T04:18:26.009Z,80.28
2023-02-12T04:21:06.660Z,80.03
2023-02-12T04:23:45.364Z,80.57
2023-02-12T04:26:34.396Z,80.37
2023-02-12T04:29:16.019Z,80.05
2023-02-12T04:31:55.946Z,80.01
2023-02-12T04:34:25.082Z,80.21
2023-02-12T04:37:14.659Z,80.06
2023-02-12T04:39:41.923Z,80.14
2023-02-12T04:42:08.605Z,80.29
2023-02-12T04:44:39.721Z,80.24
2023-02-12T04:47:06.116Z,80.97
2023-02-12T04:49:32.876Z,81.12
2023-02-12T04:51:59.487Z,80.77
2023-02-12T04:54:26.030Z,80.66
2023-02-12T04:56:52.844Z,81.07
2023-02-12T04:59:19.367Z,80.85
2023-02-12T05:01:46.289Z,80.35
2023-02-12T05:04:15.454Z,80.36
2023-02-12T05:06:43.126Z,80.45
2023-02-12T05:09:14.318Z,80.86
2023-02-12T05:11:40.857Z,80.30
2023-02-12T05:14:07.342Z,80.22
2023-02-12T05:16:33.929Z,80.48
2023-02-12T05:19:00.502Z,80.55
2023-02-12T05:21:27.134Z,80.22
2023-02-12T05:23:53.600Z,80.16
2023-02-12T05:26:21.971Z,79.63
2023-02-12T05:28:48.598Z,80.40
2023-02-12T05:31:20.764Z,80.30
2023-02-12T05:33:48.481Z,79.81
2023-02-12T05:36:18.347Z,80.41
2023-02-12T05:38:44.886Z,80.59
2023-02-12T05:41:17.139Z,80.07
2023-02-12T05:43:43.947Z,80.56
2023-02-12T05:46:11.540Z,79.99
2023-02-12T05:48:39.075Z,80.14
2023-02-12T05:51:11.484Z,79.90
2023-02-12T05:53:39.061Z,80.23
2023-02-12T05:56:15.742Z,80.29
2023-02-12T05:58:44.631Z,80.30
2023-02-12T06:01:17.228Z,80.34
2023-02-12T06:03:43.831Z,80.37
2023-02-12T06:06:10.699Z,79.92
2023-02-12T06:08:37.255Z,80.38
2023-02-12T06:11:06.501Z,80.33
2023-02-12T06:13:33.381Z,80.12
2023-02-12T06:16:00.249Z,79.90
2023-02-12T06:18:27.048Z,80.38
2023-02-12T06:20:54.576Z,80.47
2023-02-12T06:23:22.183Z,80.32
2023-02-12T06:25:49.680Z,80.39
2023-02-12T06:28:16.288Z,79.63
2023-02-12T06:30:43.150Z,79.79
2023-02-12T06:33:09.764Z,80.12
2023-02-12T06:35:36.784Z,80.58
2023-02-12T06:38:03.822Z,80.17
2023-02-12T06:40:30.521Z,80.24
2023-02-12T06:42:57.298Z,79.82
2023-02-12T06:45:23.848Z,80.46
2023-02-12T06:47:50.683Z,79.91
2023-02-12T06:50:17.402Z,80.08
2023-02-12T06:52:44.024Z,79.87
2023-02-12T06:55:10.501Z,79.98
2023-02-12T06:57:37.000Z,80.13
2023-02-12T07:00:04.248Z,80.21
2023-02-12T07:02:30.812Z,80.50
2023-02-12T07:04:57.280Z,80.57
2023-02-12T07:07:23.812Z,80.57
2023-02-12T07:09:51.231Z,79.89
2023-02-12T07:12:18.268Z,80.31
2023-02-12T07:14:45.214Z,79.93
2023-02-12T07:17:11.831Z,79.96
2023-02-12T07:19:38.386Z,80.22
2023-02-12T07:22:04.920Z,79.74
2023-02-12T07:24:31.444Z,79.86
2023-02-12T07:26:57.997Z,80.46
2023-02-12T07:29:24.547Z,80.26
2023-02-12T07:31:51.135Z,80.35
2023-02-12T07:34:17.703Z,80.18
2023-02-12T07:36:44.390Z,80.19
2023-02-12T07:39:12.456Z,79.79
2023-02-12T07:41:39.098Z,80.01
2023-02-12T07:44:10.018Z,79.59
2023-02-12T07:46:41.683Z,79.60
2023-02-12T07:49:10.936Z,79.92
2023-02-12T07:51:38.001Z,79.93
2023-02-12T07:54:04.872Z,79.66
2023-02-12T07:56:35.293Z,80.24
2023-02-12T07:59:08.154Z,79.58
2023-02-12T08:01:36.782Z,79.36
2023-02-12T08:04:05.825Z,79.83
2023-02-12T08:06:34.675Z,79.40
2023-02-12T08:09:02.676Z,79.44
2023-02-12T08:11:29.866Z,80.18
2023-02-12T08:13:57.289Z,79.83
2023-02-12T08:16:25.365Z,79.37
2023-02-12T08:18:52.602Z,79.07
2023-02-12T08:21:22.671Z,79.11
2023-02-12T08:23:50.684Z,79.60
2023-02-12T08:26:21.635Z,79.04
2023-02-12T08:28:53.738Z,78.91
2023-02-12T08:31:22.593Z,78.56
2023-02-12T08:33:50.539Z,78.90
2023-02-12T08:36:19.487Z,78.50
2023-02-12T08:38:50.397Z,78.71
2023-02-12T08:41:21.763Z,78.79
2023-02-12T08:43:49.408Z,78.71
2023-02-12T08:46:21.401Z,78.61
2023-02-12T08:48:48.058Z,78.65
2023-02-12T08:51:20.317Z,78.09
2023-02-12T08:53:48.760Z,78.23
2023-02-12T08:56:17.370Z,78.35
2023-02-12T08:58:44.658Z,78.10
2023-02-12T09:01:17.097Z,77.79
2023-02-12T09:03:44.272Z,78.32
2023-02-12T09:06:11.383Z,77.84
2023-02-12T09:08:38.841Z,77.90
2023-02-12T09:11:14.214Z,78.15
2023-02-12T09:13:43.789Z,78.28
2023-02-12T09:16:10.365Z,78.32
2023-02-12T09:18:36.950Z,77.57
2023-02-12T09:21:06.454Z,78.19
2023-02-12T09:23:33.092Z,77.98
2023-02-12T09:26:00.269Z,78.27
2023-02-12T09:28:26.860Z,78.31
2023-02-12T09:30:53.590Z,77.54
2023-02-12T09:33:20.279Z,77.71
2023-02-12T09:35:46.775Z,77.58
2023-02-12T09:38:13.294Z,77.83
2023-02-12T09:40:42.627Z,77.45
2023-02-12T09:43:18.964Z,77.46
2023-02-12T09:45:58.781Z,77.70
2023-02-12T09:48:41.115Z,77.39
2023-02-12T09:51:08.803Z,77.27
2023-02-12T09:53:38.933Z,77.44
2023-02-12T09:56:14.086Z,77.76
2023-02-12T09:58:52.032Z,77.57
2023-02-12T10:01:21.327Z,77.78
2023-02-12T10:03:51.275Z,78.08
2023-02-12T10:06:21.763Z,77.79
2023-02-12T10:09:13.359Z,77.34
2023-02-12T10:11:47.230Z,77.44
2023-02-12T10:14:30.194Z,77.35
2023-02-12T10:17:09.712Z,77.53
2023-02-12T10:20:01.095Z,77.45
2023-02-12T10:22:40.829Z,77.45
2023-02-12T10:25:29.633Z,77.23
2023-02-12T10:28:00.098Z,77.52
2023-02-12T10:30:35.656Z,77.50
2023-02-12T10:33:08.263Z,77.74
2023-02-12T10:35:35.573Z,78.42
2023-02-12T10:38:06.348Z,78.32
2023-02-12T10:40:34.606Z,78.50
2023-02-12T10:43:02.108Z,77.94
2023-02-12T10:45:35.423Z,78.65
2023-02-12T10:48:09.811Z,78.50
2023-02-12T10:50:55.971Z,78.77
2023-02-12T10:53:24.529Z,78.90
2023-02-12T10:56:07.127Z,78.75
2023-02-12T10:58:33.771Z,78.82
2023-02-12T11:01:01.524Z,78.28
2023-02-12T11:03:37.654Z,78.39
2023-02-12T11:06:13.687Z,78.57
2023-02-12T11:08:40.840Z,79.23
2023-02-12T11:11:16.348Z,79.06
2023-02-12T11:13:49.048Z,78.97
2023-02-12T11:16:27.627Z,78.31
2023-02-12T11:18:59.239Z,78.79
2023-02-12T11:21:25.882Z,78.60
2023-02-12T11:24:17.584Z,78.48
2023-02-12T11:26:44.355Z,77.94
2023-02-12T11:29:18.993Z,78.16
2023-02-12T11:32:01.083Z,78.12
2023-02-12T11:34:27.787Z,78.63
2023-02-12T11:36:54.498Z,78.89
2023-02-12T11:39:36.014Z,78.23
2023-02-12T11:42:21.207Z,78.85
2023-02-12T11:45:03.562Z,78.59
2023-02-12T11:47:34.388Z,77.83
2023-02-12T11:50:30.941Z,77.49
2023-02-12T11:53:09.967Z,77.11
2023-02-12T11:55:39.166Z,77.15
2023-02-12T11:58:20.614Z,76.85
2023-02-12T12:01:16.194Z,77.09
2023-02-12T12:03:59.462Z,77.03
2023-02-12T12:06:36.506Z,77.00
2023-02-12T12:09:11.972Z,76.74
2023-02-12T12:11:57.688Z,76.70
2023-02-12T12:14:34.244Z,77.08
2023-02-12T12:17:56.404Z,76.96
2023-02-12T12:20:25.736Z,76.67
2023-02-12T12:23:02.718Z,76.27
2023-02-12T12:25:37.492Z,76.43
2023-02-12T12:28:10.721Z,76.19
2023-02-12T12:31:01.965Z,76.29
2023-02-12T12:33:33.542Z,75.77
2023-02-12T12:36:36.758Z,75.68
2023-02-12T12:39:27.230Z,75.84
2023-02-12T12:42:13.516Z,76.40
2023-02-12T12:45:10.845Z,75.36
2023-02-12T12:47:56.132Z,75.20
2023-02-12T12:50:43.180Z,74.50
2023-02-12T12:53:24.394Z,74.19
2023-02-12T12:55:50.734Z,74.33
2023-02-12T12:58:23.181Z,73.28
2023-02-12T13:01:14.612Z,71.85
2023-02-12T13:03:59.726Z,73.59
2023-02-12T13:06:26.165Z,73.13
2023-02-12T13:09:14.979Z,73.07
2023-02-12T13:12:00.185Z,72.34
2023-02-12T13:14:47.927Z,72.39
2023-02-12T13:17:23.956Z,72.05
2023-02-12T13:20:10.280Z,72.14
2023-02-12T13:22:43.427Z,71.87
2023-02-12T13:25:28.718Z,71.51
2023-02-12T13:27:59.089Z,71.22
2023-02-12T13:33:36.917Z,70.91
2023-02-12T13:36:06.478Z,70.97
2023-02-12T13:38:40.682Z,71.07
2023-02-12T13:41:09.457Z,71.28
2023-02-12T13:44:07.061Z,71.11
2023-02-12T13:46:52.287Z,71.20
2023-02-12T13:49:45.832Z,71.39
2023-02-12T13:52:38.539Z,71.21
2023-02-12T13:55:19.496Z,70.97
2023-02-12T13:57:46.069Z,70.89
2023-02-12T14:00:47.685Z,70.34
2023-02-12T14:03:14.552Z,69.74
2023-02-12T14:05:41.225Z,69.77
2023-02-12T14:08:08.036Z,69.13
2023-02-12T14:10:37.850Z,68.98
2023-02-12T14:13:18.410Z,69.26
2023-02-12T14:15:53.017Z,69.37
2023-02-12T14:18:34.580Z,69.31
2023-02-12T14:21:13.248Z,69.23
2023-02-12T14:23:43.436Z,69.26
2023-02-12T14:26:12.472Z,69.35
2023-02-12T14:28:47.955Z,69.31
2023-02-12T14:31:20.759Z,69.17
2023-02-12T14:33:52.156Z,69.13
2023-02-12T14:36:38.873Z,68.39
2023-02-12T14:39:20.402Z,68.50
2023-02-12T14:41:48.557Z,68.74
2023-02-12T14:44:17.933Z,68.55
2023-02-12T14:46:52.544Z,69.11
2023-02-12T14:49:35.554Z,69.04
2023-02-12T14:52:14.328Z,68.80
2023-02-12T14:54:46.651Z,69.31
2023-02-12T14:57:25.136Z,69.44
2023-02-12T14:59:55.707Z,69.66
2023-02-12T15:02:30.202Z,69.25
2023-02-12T15:05:01.849Z,69.46
2023-02-12T15:07:49.052Z,69.36
2023-02-12T15:10:18.867Z,69.57
2023-02-12T15:12:51.084Z,69.69
2023-02-12T15:15:27.865Z,70.04
2023-02-12T15:18:12.720Z,70.25
2023-02-12T15:20:50.723Z,69.94
2023-02-12T15:23:34.323Z,70.11
2023-02-12T15:26:01.681Z,69.96
2023-02-12T15:28:35.412Z,70.37
2023-02-12T15:31:03.320Z,70.30
2023-02-12T15:33:32.781Z,70.20
2023-02-12T15:36:01.330Z,70.47
2023-02-12T15:38:33.832Z,70.26
2023-02-12T15:41:01.724Z,70.46
2023-02-12T15:43:34.746Z,70.22
2023-02-12T15:46:02.978Z,70.40
2023-02-12T15:48:32.611Z,70.41
2023-02-12T15:51:10.267Z,70.55
2023-02-12T15:53:39.823Z,70.14
2023-02-12T15:56:12.248Z,70.49
2023-02-12T15:58:59.316Z,70.33
2023-02-12T16:01:29.287Z,70.16
2023-02-12T16:04:04.073Z,69.91
2023-02-12T16:06:36.751Z,70.49
2023-02-12T16:09:33.010Z,70.51
2023-02-12T16:12:02.742Z,70.15
2023-02-12T16:14:40.803Z,70.40
2023-02-12T16:17:25.697Z,70.43
2023-02-12T16:20:00.131Z,70.46
2023-02-12T16:22:47.586Z,70.63
2023-02-12T16:25:20.344Z,70.44
2023-02-12T16:28:18.753Z,70.51
2023-02-12T16:30:48.426Z,71.00
2023-02-12T16:33:36.492Z,71.40
2023-02-12T16:36:05.814Z,71.52
2023-02-12T16:38:50.024Z,71.20
2023-02-12T16:41:27.325Z,70.91
2023-02-12T16:44:00.259Z,70.63
2023-02-12T16:46:57.001Z,70.94
2023-02-12T16:49:26.638Z,71.29
2023-02-12T16:51:54.227Z,71.36
2023-02-12T16:54:33.069Z,71.17
2023-02-12T16:57:00.666Z,71.21
2023-02-12T16:59:28.063Z,71.30
2023-02-12T17:05:20.334Z,71.96
2023-02-12T17:07:47.142Z,72.13
2023-02-12T17:10:14.709Z,71.72
2023-02-12T17:12:49.017Z,71.86
2023-02-12T17:15:26.309Z,72.27
2023-02-12T17:17:53.334Z,72.18
2023-02-12T17:20:20.088Z,72.04
2023-02-12T17:22:54.719Z,72.08
2023-02-12T17:25:25.043Z,72.54
2023-02-12T17:27:51.752Z,72.73
2023-02-12T17:30:21.559Z,72.87
2023-02-12T17:32:50.246Z,73.27
2023-02-12T17:35:18.572Z,72.97
2023-02-12T17:37:45.424Z,73.15
2023-02-12T17:40:12.749Z,73.17
2023-02-12T17:42:39.423Z,73.11
2023-02-12T17:45:06.603Z,73.38
2023-02-12T17:47:39.668Z,73.96
2023-02-12T17:50:11.591Z,73.68
2023-02-12T17:52:38.474Z,74.05
2023-02-12T17:55:06.609Z,73.56
2023-02-12T17:57:33.671Z,74.00
2023-02-12T18:00:00.455Z,73.77
2023-02-12T18:02:27.299Z,74.10
2023-02-12T18:04:54.116Z,73.83
2023-02-12T18:07:20.814Z,73.92
2023-02-12T18:09:47.530Z,74.25
2023-02-12T18:12:14.344Z,74.48
2023-02-12T18:14:41.168Z,74.09
2023-02-12T18:17:07.831Z,74.00
2023-02-12T18:19:34.932Z,74.70
2023-02-12T18:22:01.763Z,74.35
2023-02-12T18:24:30.704Z,74.54
2023-02-12T18:26:57.417Z,74.41
2023-02-12T18:29:23.925Z,74.29
2023-02-12T18:31:50.562Z,74.85
2023-02-12T18:34:17.480Z,74.83
2023-02-12T18:36:44.049Z,74.63
2023-02-12T18:39:10.586Z,75.00
2023-02-12T18:41:37.328Z,74.89
2023-02-12T18:44:05.344Z,75.44
2023-02-12T18:46:32.801Z,75.67
2023-02-12T18:48:59.861Z,75.61
2023-02-12T18:51:29.044Z,75.66
2023-02-12T18:54:01.256Z,75.36
2023-02-12T18:56:29.871Z,75.53
2023-02-12T18:58:57.675Z,75.81
2023-02-12T19:01:25.456Z,76.55
2023-02-12T19:03:58.911Z,75.94
2023-02-12T19:06:26.522Z,76.78
2023-02-12T19:09:02.238Z,76.64
2023-02-12T19:11:29.873Z,76.78
2023-02-12T19:13:57.226Z,76.52
2023-02-12T19:16:24.796Z,76.80
2023-02-12T19:18:54.845Z,77.18
2023-02-12T19:21:22.547Z,77.48
2023-02-12T19:23:52.560Z,78.09
2023-02-12T19:26:19.210Z,78.10
2023-02-12T19:28:46.110Z,78.22
2023-02-12T19:31:25.935Z,78.39
2023-02-12T19:33:58.054Z,78.57
2023-02-12T19:36:27.047Z,78.88
2023-02-12T19:38:54.131Z,78.58
2023-02-12T19:41:23.265Z,78.66
2023-02-12T19:43:58.269Z,78.88
2023-02-12T19:46:26.823Z,78.94
2023-02-12T19:49:01.816Z,79.21
2023-02-12T19:51:30.077Z,79.49
2023-02-12T19:54:04.120Z,79.19
2023-02-12T19:56:31.274Z,79.52
2023-02-12T19:58:58.067Z,79.31
2023-02-12T20:01:27.090Z,79.60
2023-02-12T20:03:53.818Z,79.69
2023-02-12T20:06:25.550Z,79.71
2023-02-12T20:08:52.338Z,80.02
2023-02-12T20:11:21.221Z,80.04
2023-02-12T20:13:48.175Z,80.09
2023-02-12T20:16:17.313Z,79.91
2023-02-12T20:18:45.779Z,80.46
2023-02-12T20:21:15.093Z,80.24
2023-02-12T20:23:41.695Z,80.47
2023-02-12T20:26:10.173Z,80.51
2023-02-12T20:28:37.830Z,80.57
2023-02-12T20:31:15.702Z,80.99
2023-02-12T20:33:42.511Z,80.38
2023-02-12T20:36:09.576Z,80.63
2023-02-12T20:38:36.080Z,80.86
2023-02-12T20:41:04.662Z,80.73
2023-02-12T20:43:32.334Z,81.29
2023-02-12T20:46:09.845Z,81.23
2023-02-12T20:48:37.665Z,81.64
2023-02-12T20:51:06.865Z,81.51
2023-02-12T20:53:34.226Z,81.05
2023-02-12T20:56:06.074Z,81.66
2023-02-12T20:58:32.716Z,81.12
2023-02-12T21:01:07.150Z,81.75
2023-02-12T21:03:34.236Z,81.20
2023-02-12T21:06:01.538Z,81.50
2023-02-12T21:08:28.266Z,81.71
2023-02-12T21:11:05.164Z,81.74
2023-02-12T21:13:32.271Z,81.94
2023-02-12T21:16:14.465Z,81.55
2023-02-12T21:18:41.062Z,81.57
2023-02-12T21:21:10.919Z,82.16
2023-02-12T21:23:38.158Z,82.51
2023-02-12T21:26:06.724Z,82.40
2023-02-12T21:28:34.226Z,81.63
2023-02-12T21:31:13.731Z,81.83
2023-02-12T21:33:41.887Z,81.98
2023-02-12T21:36:13.687Z,82.15
2023-02-12T21:38:42.225Z,82.06
2023-02-12T21:41:15.975Z,81.95
2023-02-12T21:43:44.184Z,81.71
2023-02-12T21:46:11.240Z,81.88
2023-02-12T21:48:39.645Z,82.00
2023-02-12T21:51:06.640Z,81.97
2023-02-12T21:53:33.150Z,82.25
2023-02-12T21:56:04.002Z,82.07
2023-02-12T21:58:30.517Z,82.27
2023-02-12T22:00:57.353Z,81.96
2023-02-12T22:03:23.977Z,82.04
2023-02-12T22:05:50.652Z,82.16
2023-02-12T22:08:17.149Z,81.87
2023-02-12T22:10:43.716Z,82.51
2023-02-12T22:13:10.255Z,81.93
2023-02-12T22:15:36.808Z,82.05
2023-02-12T22:18:03.326Z,82.30
2023-02-12T22:20:29.844Z,81.94
2023-02-12T22:22:56.304Z,82.25
2023-02-12T22:25:22.990Z,82.46
2023-02-12T22:27:49.533Z,82.78
2023-02-12T22:30:17.818Z,82.59
2023-02-12T22:32:44.440Z,82.40
2023-02-12T22:35:11.063Z,82.18
2023-02-12T22:37:40.963Z,82.23
2023-02-12T22:40:08.790Z,82.73
2023-02-12T22:42:35.493Z,82.43
2023-02-12T22:45:02.075Z,82.85
2023-02-12T22:47:31.980Z,82.85
2023-02-12T22:49:59.655Z,82.39
2023-02-12T22:52:26.968Z,82.57
2023-02-12T22:54:54.087Z,82.48
2023-02-12T22:57:20.802Z,82.96
2023-02-12T22:59:49.055Z,82.89
2023-02-12T23:02:15.792Z,82.80
2023-02-12T23:04:42.338Z,83.06
2023-02-12T23:07:08.901Z,82.65
2023-02-12T23:09:35.513Z,83.00
2023-02-12T23:12:07.433Z,83.02
2023-02-12T23:14:36.043Z,82.93
2023-02-12T23:17:04.144Z,82.63
2023-02-12T23:19:30.933Z,82.26
2023-02-12T23:21:57.773Z,82.31
2023-02-12T23:24:25.709Z,82.30
2023-02-12T23:26:53.494Z,82.71
2023-02-12T23:29:20.547Z,82.48
2023-02-12T23:31:47.338Z,82.51
2023-02-12T23:34:13.913Z,83.21
2023-02-12T23:36:40.499Z,82.42
2023-02-12T23:39:07.561Z,82.13
2023-02-12T23:41:34.270Z,82.79
2023-02-12T23:44:00.779Z,82.45
2023-02-12T23:46:27.316Z,82.70
2023-02-12T23:48:53.805Z,82.56
2023-02-12T23:51:20.285Z,82.42
2023-02-12T23:53:46.798Z,82.54
2023-02-12T23:56:13.298Z,82.44
2023-02-12T23:58:39.794Z,82.73
